sensor_id;sensor_type;location;lat;lon;timestamp;P1;durP1;ratioP1;P2;durP2;ratioP2
33206;SDS011;19565;46.602;11.534;2023-06-24T00:00:27;18.85;;;17.85;;
33206;SDS011;19565;46.602;11.534;2023-06-24T00:02:57;19.10;;;18.10;;
33206;SDS011;19565;46.602;11.534;2023-06-24T00:05:29;17.83;;;16.92;;
33206;SDS011;19565;46.602;11.534;2023-06-24T00:07:58;18.50;;;17.48;;
33206;SDS011;19565;46.602;11.534;2023-06-24T00:10:28;18.70;;;17.80;;
33206;SDS011;19565;46.602;11.534;2023-06-24T00:12:59;18.40;;;17.50;;
33206;SDS011;19565;46.602;11.534;2023-06-24T00:15:28;18.40;;;17.50;;
33206;SDS011;19565;46.602;11.534;2023-06-24T00:17:56;18.63;;;17.65;;
33206;SDS011;19565;46.602;11.534;2023-06-24T00:20:32;18.83;;;17.83;;
33206;SDS011;19565;46.602;11.534;2023-06-24T00:23:01;19.40;;;18.30;;
33206;SDS011;19565;46.602;11.534;2023-06-24T00:25:29;18.88;;;17.98;;
33206;SDS011;19565;46.602;11.534;2023-06-24T00:27:59;19.48;;;18.48;;
33206;SDS011;19565;46.602;11.534;2023-06-24T00:30:27;19.92;;;18.77;;
33206;SDS011;19565;46.602;11.534;2023-06-24T00:32:55;18.90;;;18.00;;
33206;SDS011;19565;46.602;11.534;2023-06-24T00:35:23;19.73;;;18.65;;
33206;SDS011;19565;46.602;11.534;2023-06-24T00:37:51;19.45;;;18.23;;
33206;SDS011;19565;46.602;11.534;2023-06-24T00:40:25;18.67;;;17.77;;
33206;SDS011;19565;46.602;11.534;2023-06-24T00:42:53;19.23;;;18.23;;
33206;SDS011;19565;46.602;11.534;2023-06-24T00:45:23;19.33;;;18.33;;
33206;SDS011;19565;46.602;11.534;2023-06-24T00:47:51;19.65;;;18.65;;
33206;SDS011;19565;46.602;11.534;2023-06-24T00:50:21;18.60;;;17.70;;
33206;SDS011;19565;46.602;11.534;2023-06-24T00:52:49;19.58;;;18.60;;
33206;SDS011;19565;46.602;11.534;2023-06-24T00:55:17;19.13;;;18.13;;
33206;SDS011;19565;46.602;11.534;2023-06-24T00:57:47;18.92;;;18.02;;
33206;SDS011;19565;46.602;11.534;2023-06-24T01:00:19;20.45;;;19.35;;
33206;SDS011;19565;46.602;11.534;2023-06-24T01:02:49;18.83;;;17.92;;
33206;SDS011;19565;46.602;11.534;2023-06-24T01:05:18;19.33;;;18.33;;
33206;SDS011;19565;46.602;11.534;2023-06-24T01:07:49;19.55;;;18.40;;
33206;SDS011;19565;46.602;11.534;2023-06-24T01:10:22;18.77;;;17.88;;
33206;SDS011;19565;46.602;11.534;2023-06-24T01:12:52;19.60;;;18.45;;
33206;SDS011;19565;46.602;11.534;2023-06-24T01:15:20;18.83;;;17.92;;
33206;SDS011;19565;46.602;11.534;2023-06-24T01:18:00;19.52;;;18.52;;
33206;SDS011;19565;46.602;11.534;2023-06-24T01:20:36;18.52;;;17.63;;
33206;SDS011;19565;46.602;11.534;2023-06-24T01:23:19;19.58;;;18.58;;
33206;SDS011;19565;46.602;11.534;2023-06-24T01:26:14;19.00;;;17.80;;
33206;SDS011;19565;46.602;11.534;2023-06-24T01:28:57;19.20;;;18.20;;
33206;SDS011;19565;46.602;11.534;2023-06-24T01:31:42;19.02;;;17.90;;
33206;SDS011;19565;46.602;11.534;2023-06-24T01:34:18;19.00;;;18.00;;
33206;SDS011;19565;46.602;11.534;2023-06-24T01:36:54;19.73;;;18.73;;
33206;SDS011;19565;46.602;11.534;2023-06-24T01:39:28;19.80;;;18.75;;
33206;SDS011;19565;46.602;11.534;2023-06-24T01:42:00;19.70;;;18.35;;
33206;SDS011;19565;46.602;11.534;2023-06-24T01:44:34;19.10;;;18.20;;
33206;SDS011;19565;46.602;11.534;2023-06-24T01:47:06;19.10;;;18.10;;
33206;SDS011;19565;46.602;11.534;2023-06-24T01:49:36;18.98;;;17.98;;
33206;SDS011;19565;46.602;11.534;2023-06-24T01:52:07;18.65;;;17.75;;
33206;SDS011;19565;46.602;11.534;2023-06-24T01:54:38;18.92;;;17.90;;
33206;SDS011;19565;46.602;11.534;2023-06-24T01:57:09;18.40;;;17.50;;
33206;SDS011;19565;46.602;11.534;2023-06-24T01:59:39;19.88;;;18.67;;
33206;SDS011;19565;46.602;11.534;2023-06-24T02:02:11;19.10;;;18.15;;
33206;SDS011;19565;46.602;11.534;2023-06-24T02:04:40;18.67;;;17.77;;
33206;SDS011;19565;46.602;11.534;2023-06-24T02:07:09;19.85;;;18.85;;
33206;SDS011;19565;46.602;11.534;2023-06-24T02:09:40;18.95;;;17.95;;
33206;SDS011;19565;46.602;11.534;2023-06-24T02:12:10;18.58;;;17.58;;
33206;SDS011;19565;46.602;11.534;2023-06-24T02:14:39;18.73;;;17.73;;
33206;SDS011;19565;46.602;11.534;2023-06-24T02:17:09;18.92;;;17.83;;
33206;SDS011;19565;46.602;11.534;2023-06-24T02:19:40;19.02;;;17.98;;
33206;SDS011;19565;46.602;11.534;2023-06-24T02:22:09;20.38;;;19.08;;
33206;SDS011;19565;46.602;11.534;2023-06-24T02:24:39;18.70;;;17.70;;
33206;SDS011;19565;46.602;11.534;2023-06-24T02:27:09;18.98;;;18.02;;
33206;SDS011;19565;46.602;11.534;2023-06-24T02:29:39;18.40;;;17.50;;
33206;SDS011;19565;46.602;11.534;2023-06-24T02:32:08;18.98;;;18.02;;
33206;SDS011;19565;46.602;11.534;2023-06-24T02:34:37;18.80;;;17.90;;
33206;SDS011;19565;46.602;11.534;2023-06-24T02:37:06;18.63;;;17.73;;
33206;SDS011;19565;46.602;11.534;2023-06-24T02:39:34;18.13;;;17.23;;
33206;SDS011;19565;46.602;11.534;2023-06-24T02:42:05;18.55;;;17.45;;
33206;SDS011;19565;46.602;11.534;2023-06-24T02:44:33;18.60;;;17.60;;
33206;SDS011;19565;46.602;11.534;2023-06-24T02:47:01;18.27;;;17.35;;
33206;SDS011;19565;46.602;11.534;2023-06-24T02:49:30;18.58;;;17.58;;
33206;SDS011;19565;46.602;11.534;2023-06-24T02:52:00;18.30;;;17.40;;
33206;SDS011;19565;46.602;11.534;2023-06-24T02:54:28;18.30;;;17.40;;
33206;SDS011;19565;46.602;11.534;2023-06-24T02:56:57;18.35;;;17.45;;
33206;SDS011;19565;46.602;11.534;2023-06-24T02:59:27;18.80;;;17.90;;
33206;SDS011;19565;46.602;11.534;2023-06-24T03:01:55;19.50;;;18.40;;
33206;SDS011;19565;46.602;11.534;2023-06-24T03:04:24;18.70;;;17.70;;
33206;SDS011;19565;46.602;11.534;2023-06-24T03:06:53;18.48;;;17.50;;
33206;SDS011;19565;46.602;11.534;2023-06-24T03:09:24;18.50;;;17.60;;
33206;SDS011;19565;46.602;11.534;2023-06-24T03:11:53;19.00;;;18.10;;
33206;SDS011;19565;46.602;11.534;2023-06-24T03:14:21;18.58;;;17.67;;
33206;SDS011;19565;46.602;11.534;2023-06-24T03:16:49;19.13;;;18.13;;
33206;SDS011;19565;46.602;11.534;2023-06-24T03:19:17;18.33;;;17.38;;
33206;SDS011;19565;46.602;11.534;2023-06-24T03:21:46;19.35;;;18.35;;
33206;SDS011;19565;46.602;11.534;2023-06-24T03:24:14;18.52;;;17.52;;
33206;SDS011;19565;46.602;11.534;2023-06-24T03:26:43;18.83;;;17.83;;
33206;SDS011;19565;46.602;11.534;2023-06-24T03:29:11;18.80;;;17.90;;
33206;SDS011;19565;46.602;11.534;2023-06-24T03:31:39;19.17;;;18.17;;
33206;SDS011;19565;46.602;11.534;2023-06-24T03:34:12;17.42;;;16.60;;
33206;SDS011;19565;46.602;11.534;2023-06-24T03:36:40;18.20;;;17.27;;
33206;SDS011;19565;46.602;11.534;2023-06-24T03:39:08;18.27;;;17.38;;
33206;SDS011;19565;46.602;11.534;2023-06-24T03:41:36;17.30;;;16.40;;
33206;SDS011;19565;46.602;11.534;2023-06-24T03:44:06;18.02;;;17.13;;
33206;SDS011;19565;46.602;11.534;2023-06-24T03:46:34;17.48;;;16.63;;
33206;SDS011;19565;46.602;11.534;2023-06-24T03:49:02;17.48;;;16.52;;
33206;SDS011;19565;46.602;11.534;2023-06-24T03:51:31;17.73;;;16.70;;
33206;SDS011;19565;46.602;11.534;2023-06-24T03:53:59;17.17;;;16.27;;
33206;SDS011;19565;46.602;11.534;2023-06-24T03:56:27;16.88;;;16.08;;
33206;SDS011;19565;46.602;11.534;2023-06-24T03:58:55;17.40;;;16.50;;
33206;SDS011;19565;46.602;11.534;2023-06-24T04:01:25;17.13;;;16.23;;
33206;SDS011;19565;46.602;11.534;2023-06-24T04:03:58;16.45;;;15.65;;
33206;SDS011;19565;46.602;11.534;2023-06-24T04:06:26;17.05;;;16.20;;
33206;SDS011;19565;46.602;11.534;2023-06-24T04:08:54;17.30;;;16.50;;
33206;SDS011;19565;46.602;11.534;2023-06-24T04:11:22;17.20;;;16.40;;
33206;SDS011;19565;46.602;11.534;2023-06-24T04:13:50;19.55;;;18.45;;
33206;SDS011;19565;46.602;11.534;2023-06-24T04:16:18;18.52;;;16.80;;
33206;SDS011;19565;46.602;11.534;2023-06-24T04:18:48;17.75;;;16.85;;
33206;SDS011;19565;46.602;11.534;2023-06-24T04:21:16;18.73;;;17.30;;
33206;SDS011;19565;46.602;11.534;2023-06-24T04:23:44;17.17;;;16.38;;
33206;SDS011;19565;46.602;11.534;2023-06-24T04:26:12;16.48;;;15.68;;
33206;SDS011;19565;46.602;11.534;2023-06-24T04:28:40;16.17;;;15.38;;
33206;SDS011;19565;46.602;11.534;2023-06-24T04:31:08;17.35;;;16.35;;
33206;SDS011;19565;46.602;11.534;2023-06-24T04:33:36;17.63;;;16.73;;
33206;SDS011;19565;46.602;11.534;2023-06-24T04:36:06;17.30;;;16.50;;
33206;SDS011;19565;46.602;11.534;2023-06-24T04:38:34;16.95;;;16.15;;
33206;SDS011;19565;46.602;11.534;2023-06-24T04:41:02;17.40;;;16.48;;
33206;SDS011;19565;46.602;11.534;2023-06-24T04:43:30;17.85;;;16.67;;
33206;SDS011;19565;46.602;11.534;2023-06-24T04:45:58;16.55;;;15.75;;
33206;SDS011;19565;46.602;11.534;2023-06-24T04:48:26;16.85;;;16.05;;
33206;SDS011;19565;46.602;11.534;2023-06-24T04:50:54;17.27;;;16.38;;
33206;SDS011;19565;46.602;11.534;2023-06-24T04:53:25;17.15;;;16.15;;
33206;SDS011;19565;46.602;11.534;2023-06-24T04:55:54;16.88;;;16.08;;
33206;SDS011;19565;46.602;11.534;2023-06-24T04:58:22;17.48;;;16.58;;
33206;SDS011;19565;46.602;11.534;2023-06-24T05:00:50;16.98;;;16.17;;
33206;SDS011;19565;46.602;11.534;2023-06-24T05:03:18;18.05;;;16.95;;
33206;SDS011;19565;46.602;11.534;2023-06-24T05:05:46;17.30;;;16.40;;
33206;SDS011;19565;46.602;11.534;2023-06-24T05:08:14;17.98;;;17.08;;
33206;SDS011;19565;46.602;11.534;2023-06-24T05:10:43;18.02;;;17.13;;
33206;SDS011;19565;46.602;11.534;2023-06-24T05:13:11;17.08;;;16.15;;
33206;SDS011;19565;46.602;11.534;2023-06-24T05:15:39;16.20;;;15.40;;
33206;SDS011;19565;46.602;11.534;2023-06-24T05:18:07;16.92;;;16.02;;
33206;SDS011;19565;46.602;11.534;2023-06-24T05:20:35;16.63;;;15.82;;
33206;SDS011;19565;46.602;11.534;2023-06-24T05:23:03;17.15;;;16.25;;
33206;SDS011;19565;46.602;11.534;2023-06-24T05:25:31;16.98;;;16.13;;
33206;SDS011;19565;46.602;11.534;2023-06-24T05:28:01;17.83;;;16.80;;
33206;SDS011;19565;46.602;11.534;2023-06-24T05:30:29;17.00;;;16.20;;
33206;SDS011;19565;46.602;11.534;2023-06-24T05:32:57;17.20;;;16.40;;
33206;SDS011;19565;46.602;11.534;2023-06-24T05:35:25;17.63;;;16.63;;
33206;SDS011;19565;46.602;11.534;2023-06-24T05:37:54;16.98;;;16.17;;
33206;SDS011;19565;46.602;11.534;2023-06-24T05:40:22;17.00;;;16.00;;
33206;SDS011;19565;46.602;11.534;2023-06-24T05:42:50;20.45;;;19.45;;
33206;SDS011;19565;46.602;11.534;2023-06-24T05:45:20;21.15;;;19.95;;
33206;SDS011;19565;46.602;11.534;2023-06-24T05:47:48;20.45;;;19.38;;
33206;SDS011;19565;46.602;11.534;2023-06-24T05:50:16;19.92;;;18.90;;
33206;SDS011;19565;46.602;11.534;2023-06-24T05:52:44;18.73;;;17.83;;
33206;SDS011;19565;46.602;11.534;2023-06-24T05:55:12;19.23;;;18.23;;
33206;SDS011;19565;46.602;11.534;2023-06-24T05:57:40;18.48;;;17.58;;
33206;SDS011;19565;46.602;11.534;2023-06-24T06:00:08;19.60;;;18.55;;
33206;SDS011;19565;46.602;11.534;2023-06-24T06:02:38;19.40;;;18.40;;
33206;SDS011;19565;46.602;11.534;2023-06-24T06:05:07;20.08;;;19.08;;
33206;SDS011;19565;46.602;11.534;2023-06-24T06:07:35;20.60;;;19.60;;
33206;SDS011;19565;46.602;11.534;2023-06-24T06:10:05;19.65;;;18.73;;
33206;SDS011;19565;46.602;11.534;2023-06-24T06:12:33;19.40;;;18.50;;
33206;SDS011;19565;46.602;11.534;2023-06-24T06:15:01;19.88;;;18.88;;
33206;SDS011;19565;46.602;11.534;2023-06-24T06:17:29;21.00;;;20.00;;
33206;SDS011;19565;46.602;11.534;2023-06-24T06:19:59;21.48;;;20.38;;
33206;SDS011;19565;46.602;11.534;2023-06-24T06:22:27;22.38;;;21.25;;
33206;SDS011;19565;46.602;11.534;2023-06-24T06:24:55;22.10;;;21.00;;
33206;SDS011;19565;46.602;11.534;2023-06-24T06:27:23;22.60;;;21.45;;
33206;SDS011;19565;46.602;11.534;2023-06-24T06:29:51;22.38;;;21.27;;
33206;SDS011;19565;46.602;11.534;2023-06-24T06:32:19;21.48;;;20.48;;
33206;SDS011;19565;46.602;11.534;2023-06-24T06:34:47;21.83;;;20.73;;
33206;SDS011;19565;46.602;11.534;2023-06-24T06:37:16;20.27;;;19.27;;
33206;SDS011;19565;46.602;11.534;2023-06-24T06:39:44;21.60;;;20.55;;
33206;SDS011;19565;46.602;11.534;2023-06-24T06:42:12;21.98;;;20.88;;
33206;SDS011;19565;46.602;11.534;2023-06-24T06:44:41;22.23;;;21.13;;
33206;SDS011;19565;46.602;11.534;2023-06-24T06:47:10;22.30;;;21.20;;
33206;SDS011;19565;46.602;11.534;2023-06-24T06:49:38;22.30;;;21.20;;
33206;SDS011;19565;46.602;11.534;2023-06-24T06:52:06;22.73;;;21.63;;
33206;SDS011;19565;46.602;11.534;2023-06-24T06:54:36;21.73;;;20.60;;
33206;SDS011;19565;46.602;11.534;2023-06-24T06:57:04;19.88;;;18.95;;
33206;SDS011;19565;46.602;11.534;2023-06-24T06:59:32;28.80;;;27.50;;
33206;SDS011;19565;46.602;11.534;2023-06-24T07:02:00;21.45;;;20.35;;
33206;SDS011;19565;46.602;11.534;2023-06-24T07:04:29;21.65;;;20.65;;
33206;SDS011;19565;46.602;11.534;2023-06-24T07:06:59;22.05;;;20.95;;
33206;SDS011;19565;46.602;11.534;2023-06-24T07:09:27;22.10;;;20.85;;
33206;SDS011;19565;46.602;11.534;2023-06-24T07:11:56;21.60;;;20.50;;
33206;SDS011;19565;46.602;11.534;2023-06-24T07:14:24;20.88;;;19.88;;
33206;SDS011;19565;46.602;11.534;2023-06-24T07:16:52;20.95;;;19.95;;
33206;SDS011;19565;46.602;11.534;2023-06-24T07:19:20;21.52;;;20.35;;
33206;SDS011;19565;46.602;11.534;2023-06-24T07:21:48;20.65;;;19.65;;
33206;SDS011;19565;46.602;11.534;2023-06-24T07:24:16;20.95;;;19.95;;
33206;SDS011;19565;46.602;11.534;2023-06-24T07:26:44;21.23;;;20.23;;
33206;SDS011;19565;46.602;11.534;2023-06-24T07:29:14;21.65;;;20.55;;
33206;SDS011;19565;46.602;11.534;2023-06-24T07:31:42;21.58;;;20.58;;
33206;SDS011;19565;46.602;11.534;2023-06-24T07:34:10;21.38;;;20.27;;
33206;SDS011;19565;46.602;11.534;2023-06-24T07:36:38;21.67;;;20.58;;
33206;SDS011;19565;46.602;11.534;2023-06-24T07:39:06;21.27;;;20.17;;
33206;SDS011;19565;46.602;11.534;2023-06-24T07:41:35;20.98;;;19.95;;
33206;SDS011;19565;46.602;11.534;2023-06-24T07:44:03;21.63;;;20.52;;
33206;SDS011;19565;46.602;11.534;2023-06-24T07:46:32;21.38;;;20.27;;
33206;SDS011;19565;46.602;11.534;2023-06-24T07:49:01;22.13;;;21.02;;
33206;SDS011;19565;46.602;11.534;2023-06-24T07:51:29;20.23;;;19.23;;
33206;SDS011;19565;46.602;11.534;2023-06-24T07:53:57;20.90;;;19.90;;
33206;SDS011;19565;46.602;11.534;2023-06-24T07:56:25;20.58;;;19.58;;
33206;SDS011;19565;46.602;11.534;2023-06-24T07:58:53;21.10;;;20.10;;
33206;SDS011;19565;46.602;11.534;2023-06-24T08:01:21;41.17;;;39.38;;
33206;SDS011;19565;46.602;11.534;2023-06-24T08:03:50;38.03;;;36.30;;
33206;SDS011;19565;46.602;11.534;2023-06-24T08:06:18;161.10;;;151.55;;
33206;SDS011;19565;46.602;11.534;2023-06-24T08:08:47;56.70;;;54.30;;
33206;SDS011;19565;46.602;11.534;2023-06-24T08:11:15;61.13;;;58.50;;
33206;SDS011;19565;46.602;11.534;2023-06-24T08:13:43;65.68;;;62.88;;
33206;SDS011;19565;46.602;11.534;2023-06-24T08:16:11;58.53;;;56.03;;
33206;SDS011;19565;46.602;11.534;2023-06-24T08:18:39;55.00;;;52.70;;
33206;SDS011;19565;46.602;11.534;2023-06-24T08:21:08;51.15;;;48.95;;
33206;SDS011;19565;46.602;11.534;2023-06-24T08:23:36;55.90;;;53.50;;
33206;SDS011;19565;46.602;11.534;2023-06-24T08:26:05;56.25;;;53.80;;
33206;SDS011;19565;46.602;11.534;2023-06-24T08:28:43;56.58;;;54.17;;
33206;SDS011;19565;46.602;11.534;2023-06-24T08:31:11;59.80;;;57.20;;
33206;SDS011;19565;46.602;11.534;2023-06-24T08:33:41;60.75;;;58.15;;
33206;SDS011;19565;46.602;11.534;2023-06-24T08:36:11;59.25;;;56.75;;
33206;SDS011;19565;46.602;11.534;2023-06-24T08:38:40;59.92;;;57.33;;
33206;SDS011;19565;46.602;11.534;2023-06-24T08:41:08;60.25;;;57.55;;
33206;SDS011;19565;46.602;11.534;2023-06-24T08:43:36;60.08;;;57.38;;
33206;SDS011;19565;46.602;11.534;2023-06-24T08:46:05;62.85;;;60.13;;
33206;SDS011;19565;46.602;11.534;2023-06-24T08:48:33;61.70;;;59.03;;
33206;SDS011;19565;46.602;11.534;2023-06-24T08:51:07;61.40;;;58.67;;
33206;SDS011;19565;46.602;11.534;2023-06-24T08:53:37;61.25;;;58.58;;
33206;SDS011;19565;46.602;11.534;2023-06-24T08:56:09;61.05;;;58.35;;
33206;SDS011;19565;46.602;11.534;2023-06-24T08:58:37;66.25;;;63.35;;
33206;SDS011;19565;46.602;11.534;2023-06-24T09:01:05;68.28;;;65.35;;
33206;SDS011;19565;46.602;11.534;2023-06-24T09:03:34;67.03;;;64.13;;
33206;SDS011;19565;46.602;11.534;2023-06-24T09:06:03;68.70;;;65.80;;
33206;SDS011;19565;46.602;11.534;2023-06-24T09:08:31;67.93;;;65.03;;
33206;SDS011;19565;46.602;11.534;2023-06-24T09:11:03;67.50;;;64.63;;
33206;SDS011;19565;46.602;11.534;2023-06-24T09:13:33;70.75;;;67.65;;
33206;SDS011;19565;46.602;11.534;2023-06-24T09:16:12;67.50;;;64.60;;
33206;SDS011;19565;46.602;11.534;2023-06-24T09:18:47;67.65;;;64.75;;
33206;SDS011;19565;46.602;11.534;2023-06-24T09:21:20;72.45;;;69.35;;
33206;SDS011;19565;46.602;11.534;2023-06-24T09:23:51;70.80;;;67.80;;
33206;SDS011;19565;46.602;11.534;2023-06-24T09:26:24;68.75;;;65.85;;
33206;SDS011;19565;46.602;11.534;2023-06-24T09:28:52;72.90;;;69.80;;
33206;SDS011;19565;46.602;11.534;2023-06-24T09:31:22;74.78;;;71.65;;
33206;SDS011;19565;46.602;11.534;2023-06-24T09:33:51;72.95;;;69.78;;
33206;SDS011;19565;46.602;11.534;2023-06-24T09:36:23;72.32;;;69.32;;
33206;SDS011;19565;46.602;11.534;2023-06-24T09:38:54;72.38;;;69.28;;
33206;SDS011;19565;46.602;11.534;2023-06-24T09:41:25;71.10;;;68.10;;
33206;SDS011;19565;46.602;11.534;2023-06-24T09:43:54;71.10;;;68.07;;
33206;SDS011;19565;46.602;11.534;2023-06-24T09:46:25;72.95;;;69.85;;
33206;SDS011;19565;46.602;11.534;2023-06-24T09:48:56;71.68;;;68.68;;
33206;SDS011;19565;46.602;11.534;2023-06-24T09:51:24;72.63;;;69.53;;
33206;SDS011;19565;46.602;11.534;2023-06-24T09:53:53;73.07;;;69.97;;
33206;SDS011;19565;46.602;11.534;2023-06-24T09:56:25;72.30;;;69.10;;
33206;SDS011;19565;46.602;11.534;2023-06-24T09:58:53;72.50;;;69.45;;
33206;SDS011;19565;46.602;11.534;2023-06-24T10:01:22;71.55;;;68.55;;
33206;SDS011;19565;46.602;11.534;2023-06-24T10:03:50;75.00;;;71.80;;
33206;SDS011;19565;46.602;11.534;2023-06-24T10:06:18;72.40;;;69.30;;
33206;SDS011;19565;46.602;11.534;2023-06-24T10:08:47;72.55;;;69.45;;
33206;SDS011;19565;46.602;11.534;2023-06-24T10:11:15;73.20;;;70.10;;
33206;SDS011;19565;46.602;11.534;2023-06-24T10:13:44;74.65;;;71.55;;
33206;SDS011;19565;46.602;11.534;2023-06-24T10:16:13;72.20;;;69.15;;
33206;SDS011;19565;46.602;11.534;2023-06-24T10:18:43;74.55;;;71.45;;
33206;SDS011;19565;46.602;11.534;2023-06-24T10:21:12;70.68;;;67.68;;
33206;SDS011;19565;46.602;11.534;2023-06-24T10:23:50;71.72;;;68.72;;
33206;SDS011;19565;46.602;11.534;2023-06-24T10:26:24;71.28;;;68.28;;
33206;SDS011;19565;46.602;11.534;2023-06-24T10:29:11;73.43;;;70.32;;
33206;SDS011;19565;46.602;11.534;2023-06-24T10:31:53;72.03;;;69.03;;
33206;SDS011;19565;46.602;11.534;2023-06-24T10:34:24;70.18;;;67.18;;
33206;SDS011;19565;46.602;11.534;2023-06-24T10:36:56;72.30;;;69.20;;
33206;SDS011;19565;46.602;11.534;2023-06-24T10:39:39;68.93;;;66.03;;
33206;SDS011;19565;46.602;11.534;2023-06-24T10:42:31;69.32;;;66.43;;
33206;SDS011;19565;46.602;11.534;2023-06-24T10:45:14;70.07;;;67.13;;
33206;SDS011;19565;46.602;11.534;2023-06-24T10:47:44;71.75;;;68.75;;
33206;SDS011;19565;46.602;11.534;2023-06-24T10:50:14;70.85;;;67.75;;
33206;SDS011;19565;46.602;11.534;2023-06-24T10:52:43;69.28;;;66.38;;
33206;SDS011;19565;46.602;11.534;2023-06-24T10:55:13;73.25;;;70.05;;
33206;SDS011;19565;46.602;11.534;2023-06-24T10:57:43;72.15;;;69.05;;
33206;SDS011;19565;46.602;11.534;2023-06-24T11:00:11;74.07;;;70.97;;
33206;SDS011;19565;46.602;11.534;2023-06-24T11:02:42;70.88;;;67.90;;
33206;SDS011;19565;46.602;11.534;2023-06-24T11:05:11;72.45;;;69.45;;
33206;SDS011;19565;46.602;11.534;2023-06-24T11:07:39;72.32;;;69.22;;
33206;SDS011;19565;46.602;11.534;2023-06-24T11:10:09;73.50;;;70.40;;
33206;SDS011;19565;46.602;11.534;2023-06-24T11:12:39;71.70;;;68.70;;
33206;SDS011;19565;46.602;11.534;2023-06-24T11:15:10;72.85;;;69.75;;
33206;SDS011;19565;46.602;11.534;2023-06-24T11:17:40;73.78;;;70.57;;
33206;SDS011;19565;46.602;11.534;2023-06-24T11:20:09;70.55;;;67.55;;
33206;SDS011;19565;46.602;11.534;2023-06-24T11:22:39;71.80;;;68.60;;
33206;SDS011;19565;46.602;11.534;2023-06-24T11:25:13;73.72;;;70.53;;
33206;SDS011;19565;46.602;11.534;2023-06-24T11:27:43;69.45;;;66.55;;
33206;SDS011;19565;46.602;11.534;2023-06-24T11:30:11;71.63;;;68.63;;
33206;SDS011;19565;46.602;11.534;2023-06-24T11:32:42;71.35;;;68.18;;
33206;SDS011;19565;46.602;11.534;2023-06-24T11:35:12;69.45;;;66.55;;
33206;SDS011;19565;46.602;11.534;2023-06-24T11:37:42;69.80;;;66.90;;
33206;SDS011;19565;46.602;11.534;2023-06-24T11:40:16;75.72;;;72.55;;
33206;SDS011;19565;46.602;11.534;2023-06-24T11:42:46;78.32;;;75.13;;
33206;SDS011;19565;46.602;11.534;2023-06-24T11:45:19;83.22;;;79.65;;
33206;SDS011;19565;46.602;11.534;2023-06-24T11:47:50;82.47;;;79.07;;
33206;SDS011;19565;46.602;11.534;2023-06-24T11:50:20;82.18;;;78.68;;
33206;SDS011;19565;46.602;11.534;2023-06-24T11:52:53;87.15;;;83.45;;
33206;SDS011;19565;46.602;11.534;2023-06-24T11:55:22;87.93;;;84.13;;
33206;SDS011;19565;46.602;11.534;2023-06-24T11:57:55;87.35;;;83.70;;
33206;SDS011;19565;46.602;11.534;2023-06-24T12:00:25;85.35;;;81.75;;
33206;SDS011;19565;46.602;11.534;2023-06-24T12:02:55;86.00;;;82.32;;
33206;SDS011;19565;46.602;11.534;2023-06-24T12:05:27;83.55;;;80.05;;
33206;SDS011;19565;46.602;11.534;2023-06-24T12:07:57;84.20;;;80.70;;
33206;SDS011;19565;46.602;11.534;2023-06-24T12:10:27;84.50;;;81.00;;
33206;SDS011;19565;46.602;11.534;2023-06-24T12:12:56;81.40;;;78.00;;
33206;SDS011;19565;46.602;11.534;2023-06-24T12:15:25;74.95;;;71.85;;
33206;SDS011;19565;46.602;11.534;2023-06-24T12:17:55;77.95;;;74.65;;
33206;SDS011;19565;46.602;11.534;2023-06-24T12:20:23;78.57;;;75.28;;
33206;SDS011;19565;46.602;11.534;2023-06-24T12:23:00;76.57;;;73.38;;
33206;SDS011;19565;46.602;11.534;2023-06-24T12:25:28;79.88;;;76.57;;
33206;SDS011;19565;46.602;11.534;2023-06-24T12:27:56;78.00;;;74.70;;
33206;SDS011;19565;46.602;11.534;2023-06-24T12:30:26;79.00;;;75.80;;
33206;SDS011;19565;46.602;11.534;2023-06-24T12:32:55;77.38;;;74.15;;
33206;SDS011;19565;46.602;11.534;2023-06-24T12:35:24;76.68;;;73.50;;
33206;SDS011;19565;46.602;11.534;2023-06-24T12:37:52;84.07;;;80.40;;
33206;SDS011;19565;46.602;11.534;2023-06-24T12:40:20;79.72;;;76.43;;
33206;SDS011;19565;46.602;11.534;2023-06-24T12:42:48;80.82;;;77.43;;
33206;SDS011;19565;46.602;11.534;2023-06-24T12:45:16;80.05;;;76.45;;
33206;SDS011;19565;46.602;11.534;2023-06-24T12:47:44;81.47;;;78.07;;
33206;SDS011;19565;46.602;11.534;2023-06-24T12:50:14;79.68;;;76.38;;
33206;SDS011;19565;46.602;11.534;2023-06-24T12:52:42;81.22;;;77.82;;
33206;SDS011;19565;46.602;11.534;2023-06-24T12:55:10;78.57;;;75.28;;
33206;SDS011;19565;46.602;11.534;2023-06-24T12:57:42;80.38;;;76.97;;
33206;SDS011;19565;46.602;11.534;2023-06-24T13:00:11;81.00;;;77.70;;
33206;SDS011;19565;46.602;11.534;2023-06-24T13:02:40;81.00;;;77.50;;
33206;SDS011;19565;46.602;11.534;2023-06-24T13:05:08;78.68;;;75.43;;
33206;SDS011;19565;46.602;11.534;2023-06-24T13:07:37;78.95;;;75.55;;
33206;SDS011;19565;46.602;11.534;2023-06-24T13:10:06;83.78;;;80.28;;
33206;SDS011;19565;46.602;11.534;2023-06-24T13:12:35;78.88;;;75.55;;
33206;SDS011;19565;46.602;11.534;2023-06-24T13:15:03;77.97;;;74.57;;
33206;SDS011;19565;46.602;11.534;2023-06-24T13:17:33;78.18;;;74.93;;
33206;SDS011;19565;46.602;11.534;2023-06-24T13:20:01;76.88;;;73.68;;
33206;SDS011;19565;46.602;11.534;2023-06-24T13:22:30;75.07;;;71.97;;
33206;SDS011;19565;46.602;11.534;2023-06-24T13:25:00;76.05;;;72.85;;
33206;SDS011;19565;46.602;11.534;2023-06-24T13:27:28;76.30;;;73.10;;
33206;SDS011;19565;46.602;11.534;2023-06-24T13:29:56;77.07;;;73.88;;
33206;SDS011;19565;46.602;11.534;2023-06-24T13:32:24;76.55;;;73.35;;
33206;SDS011;19565;46.602;11.534;2023-06-24T13:34:52;76.65;;;73.45;;
33206;SDS011;19565;46.602;11.534;2023-06-24T13:37:20;78.57;;;75.32;;
33206;SDS011;19565;46.602;11.534;2023-06-24T13:39:48;78.05;;;74.82;;
33206;SDS011;19565;46.602;11.534;2023-06-24T13:42:18;75.47;;;72.28;;
33206;SDS011;19565;46.602;11.534;2023-06-24T13:44:46;74.93;;;71.82;;
33206;SDS011;19565;46.602;11.534;2023-06-24T13:47:14;76.20;;;73.00;;
33206;SDS011;19565;46.602;11.534;2023-06-24T13:49:42;75.70;;;72.53;;
33206;SDS011;19565;46.602;11.534;2023-06-24T13:52:10;76.55;;;73.38;;
33206;SDS011;19565;46.602;11.534;2023-06-24T13:54:38;76.50;;;73.30;;
33206;SDS011;19565;46.602;11.534;2023-06-24T13:57:06;76.40;;;73.20;;
33206;SDS011;19565;46.602;11.534;2023-06-24T13:59:36;75.88;;;72.68;;
33206;SDS011;19565;46.602;11.534;2023-06-24T14:02:04;76.90;;;73.70;;
33206;SDS011;19565;46.602;11.534;2023-06-24T14:04:34;74.47;;;71.38;;
33206;SDS011;19565;46.602;11.534;2023-06-24T14:07:02;74.85;;;71.75;;
33206;SDS011;19565;46.602;11.534;2023-06-24T14:09:31;76.32;;;73.13;;
33206;SDS011;19565;46.602;11.534;2023-06-24T14:11:59;76.97;;;73.78;;
33206;SDS011;19565;46.602;11.534;2023-06-24T14:14:27;72.57;;;69.57;;
33206;SDS011;19565;46.602;11.534;2023-06-24T14:16:56;73.47;;;70.38;;
33206;SDS011;19565;46.602;11.534;2023-06-24T14:19:24;73.95;;;70.85;;
33206;SDS011;19565;46.602;11.534;2023-06-24T14:21:52;72.13;;;69.07;;